Search for airport 
image banner adimage banner adimage banner ad
image banner ad

KGOO - Nevada County Air Park

Located in Grass Valley, United States

ICAO - GOO, IATA -

Data provided by Airmate  

General information

Coordinates: N39°13'27" W121°0'9"
Elevation is 3158 feet MSL.
Magnetic variation is 16° East
View others Airports in California

Operational data

Special qualification required
Current time UTC:
Current local time:
Weather
METAR: KGOO 220010Z AUTO 00000KT 10SM CLR 30/01 A3021 RMK A01
View NOTAMs / SUP AIP / TFR affecting this airport [VIEW]
Communications frequencies: [VIEW]

Runways:

RWY identifierQFULength (ft)Width (ft)SurfaceLDA (ft)
0787°465775ASPH
25267°465775ASPH

Airport contact information

Address: Grass Valley United States

Other aviation service providers

Flight schools

Alpine Aviation, Inc.

Alpine Aviation, Inc.
sandy@flyalpine.com+1(530)477-7701

Satellite view of KGOO